^^
Your Local Weather - Clay, NY Station Historical Data
Daily Summary for February 5, 2017 Units:  Metric    English   Both
« Previous Day
Next Day »
Daily Weekly Monthly Yearly Custom
  High: Low: Average:
Temperature: 0.8 °C -9.5 °C -2.7 °C
Dew Point: -2.1 °C -12.7 °C -7.2 °C
Humidity: 91% 42% 73%
Wind Speed: 12.9km/h 0km/h 4.3km/h
Wind Gust: 22.5km/h - -
Wind- - WSW
Pressure: 1019.5 hPa 1007 hPa -
Precipitation: 0.25 mm    
Historical Graphs
 
 
Tabular Data for February 5, 2017
Time Temperature Dew Point Pressure Wind Wind Speed Wind Gust Humidity Rainfall Rate (Hourly) solar
00:02 -7.9 °C -10.9 °C 1019.5 hPa Calm     79% 0 mm 0 W/m2
00:08 -8.1 °C -10.9 °C 1019.5 hPa Calm   1.6 km/h 80% 0 mm 0 W/m2
00:13 -8.2 °C -11.1 °C 1019.5 hPa Calm     80% 0 mm 0 W/m2
00:20 -8.4 °C -11.2 °C 1019.2 hPa Calm     80% 0 mm 0 W/m2
00:25 -8.5 °C -11.3 °C 1019.2 hPa Calm     80% 0 mm 0 W/m2
00:32 -8.5 °C -11.3 °C 1019.2 hPa Calm     80% 0 mm 0 W/m2
00:38 -8.4 °C -11.2 °C 1019.2 hPa Calm     80% 0 mm 0 W/m2
00:43 -8.2 °C -11.1 °C 1018.8 hPa Calm     80% 0 mm 0 W/m2
00:49 -8.2 °C -11.2 °C 1018.5 hPa Calm     79% 0 mm 0 W/m2
00:56 -8.2 °C -11.2 °C 1018.5 hPa Calm     79% 0 mm 0 W/m2
01:02 -8 °C -10.8 °C 1018.5 hPa Calm     80% 0 mm 0 W/m2
01:08 -7.9 °C -10.7 °C 1018.5 hPa Calm     80% 0 mm 0 W/m2
01:14 -7.8 °C -11 °C 1018.2 hPa Calm   1.6 km/h 78% 0 mm 0 W/m2
01:20 -7.7 °C -10.9 °C 1018.2 hPa Calm     78% 0 mm 0 W/m2
01:26 -7.4 °C -10.9 °C 1018.2 hPa Calm   3.2 km/h 76% 0 mm 0 W/m2
01:32 -7.1 °C -10.7 °C 1018.2 hPa Calm     75% 0 mm 0 W/m2
01:38 -6.8 °C -10.7 °C 1017.5 hPa Calm     74% 0 mm 0 W/m2
01:44 -6.4 °C -10.7 °C 1017.5 hPa Calm     72% 0 mm 0 W/m2
01:50 -6 °C -10.6 °C 1017.5 hPa Calm     70% 0 mm 0 W/m2
01:56 -5.6 °C -10.4 °C 1017.5 hPa Calm   3.2 km/h 69% 0 mm 0 W/m2
02:02 -4.8 °C -10.6 °C 1016.8 hPa South 1.6 km/h 1.6 km/h 64% 0 mm 0 W/m2
02:08 -4.4 °C -10.6 °C 1016.8 hPa South 1.6 km/h 3.2 km/h 62% 0 mm 0 W/m2
02:14 -4.6 °C -10.6 °C 1016.5 hPa Calm   1.6 km/h 63% 0 mm 0 W/m2
02:20 -4.7 °C -10.9 °C 1016.8 hPa Calm   1.6 km/h 62% 0 mm 0 W/m2
02:26 -4.6 °C -10.9 °C 1016.5 hPa South 1.6 km/h 3.2 km/h 61% 0 mm 0 W/m2
02:32 -4.6 °C -11 °C 1016.1 hPa South 1.6 km/h 3.2 km/h 61% 0 mm 0 W/m2
02:38 -4.7 °C -11.1 °C 1016.1 hPa South 1.6 km/h 4.8 km/h 61% 0 mm 0 W/m2
02:44 -4.9 °C -10.4 °C 1015.8 hPa South 1.6 km/h 1.6 km/h 65% 0 mm 0 W/m2
02:50 -5.3 °C -10.3 °C 1015.5 hPa Calm     68% 0 mm 0 W/m2
02:56 -5.1 °C -10.9 °C 1015.5 hPa Calm   1.6 km/h 64% 0 mm 0 W/m2
03:02 -4.4 °C -11.1 °C 1015.8 hPa South 3.2 km/h 4.8 km/h 60% 0 mm 0 W/m2
03:08 -4.2 °C -11 °C 1015.8 hPa South 3.2 km/h 4.8 km/h 59% 0 mm 0 W/m2
03:14 -4.2 °C -10.6 °C 1015.5 hPa South 1.6 km/h 3.2 km/h 61% 0 mm 0 W/m2
03:20 -4.5 °C -10.7 °C 1015.5 hPa South 3.2 km/h 3.2 km/h 62% 0 mm 0 W/m2
03:26 -5.2 °C -10.2 °C 1015.1 hPa South 1.6 km/h 3.2 km/h 68% 0 mm 0 W/m2
03:32 -5.6 °C -10.8 °C 1014.8 hPa Calm     67% 0 mm 0 W/m2
03:38 -5.7 °C -10.7 °C 1014.8 hPa Calm     68% 0 mm 0 W/m2
03:44 -6.1 °C -10.9 °C 1014.4 hPa Calm     69% 0 mm 0 W/m2
03:50 -6.7 °C -11.3 °C 1014.4 hPa Calm   1.6 km/h 70% 0 mm 0 W/m2
03:56 -7.2 °C -11.6 °C 1014.4 hPa South 1.6 km/h 1.6 km/h 71% 0 mm 0 W/m2
04:02 -7.4 °C -11.4 °C 1014.1 hPa South 1.6 km/h 1.6 km/h 73% 0 mm 0 W/m2
04:08 -7.6 °C -11.4 °C 1014.1 hPa South 1.6 km/h 1.6 km/h 74% 0 mm 0 W/m2
04:14 -7.8 °C -11.7 °C 1014.1 hPa Calm     74% 0 mm 0 W/m2
04:20 -8.2 °C -12.2 °C 1013.8 hPa Calm     73% 0 mm 0 W/m2
04:26 -8.3 °C -12.1 °C 1013.8 hPa South 1.6 km/h 3.2 km/h 74% 0 mm 0 W/m2
04:32 -8.7 °C -12.4 °C 1013.8 hPa South 1.6 km/h 3.2 km/h 74% 0 mm 0 W/m2
04:38 -8.7 °C -12.3 °C 1013.8 hPa Calm   3.2 km/h 75% 0 mm 0 W/m2
04:44 -8.7 °C -12.3 °C 1013.4 hPa Calm   1.6 km/h 75% 0 mm 0 W/m2
04:50 -8.9 °C -12.5 °C 1013.4 hPa Calm     75% 0 mm 0 W/m2
04:56 -9.1 °C -12.7 °C 1013.4 hPa Calm     75% 0 mm 0 W/m2
05:02 -9.3 °C -12.7 °C 1013.4 hPa Calm     76% 0 mm 0 W/m2
05:08 -9.4 °C -12.7 °C 1013.4 hPa NE 1.6 km/h 3.2 km/h 77% 0 mm 0 W/m2
05:14 -9.4 °C -12.6 °C 1013.4 hPa NE 1.6 km/h 1.6 km/h 78% 0 mm 0 W/m2
05:20 -9.5 °C -12.6 °C 1013.1 hPa Calm   1.6 km/h 78% 0 mm 0 W/m2
05:26 -9.2 °C -12.2 °C 1013.1 hPa Calm   1.6 km/h 79% 0 mm 0 W/m2
05:32 -8.8 °C -11.7 °C 1012.8 hPa Calm   3.2 km/h 80% 0 mm 0 W/m2
05:38 -8.1 °C -11.4 °C 1012.8 hPa ENE 1.6 km/h 3.2 km/h 77% 0 mm 0 W/m2
05:44 -7.8 °C -11.4 °C 1012.8 hPa ENE 1.6 km/h 4.8 km/h 75% 0 mm 0 W/m2
05:50 -7.8 °C -11.4 °C 1012.8 hPa ENE 1.6 km/h 3.2 km/h 75% 0 mm 0 W/m2
05:56 -7.8 °C -11.3 °C 1012.4 hPa ENE 1.6 km/h 3.2 km/h 76% 0 mm 0 W/m2
06:02 -7.8 °C -11.2 °C 1012.8 hPa Calm     77% 0 mm 0 W/m2
06:08 -7.7 °C -11 °C 1012.4 hPa Calm     77% 0 mm 0 W/m2
06:14 -7.6 °C -10.9 °C 1012.4 hPa Calm     77% 0 mm 0 W/m2
06:20 -7.5 °C -10.8 °C 1012.4 hPa Calm     77% 0 mm 0 W/m2
06:26 -7.6 °C -10.9 °C 1012.4 hPa Calm     77% 0 mm 0 W/m2
06:32 -7.7 °C -11.1 °C 1012.1 hPa Calm     77% 0 mm 0 W/m2
06:38 -7.9 °C -11.1 °C 1012.1 hPa Calm     78% 0 mm 0 W/m2
06:44 -8.1 °C -11.2 °C 1012.1 hPa Calm     78% 0 mm 0 W/m2
06:50 -8.2 °C -11.3 °C 1011.7 hPa Calm     78% 0 mm 0 W/m2
06:56 -8.2 °C -11.2 °C 1011.7 hPa Calm     79% 0 mm 0 W/m2
07:02 -8.3 °C -11.3 °C 1011.7 hPa Calm     79% 0 mm 0 W/m2
07:08 -8.2 °C -11.1 °C 1011.7 hPa Calm     80% 0 mm 0 W/m2
07:14 -8.2 °C -10.8 °C 1011.7 hPa Calm     81% 0 mm 0 W/m2
07:20 -8.2 °C -11 °C 1011.4 hPa Calm     80% 0 mm 0 W/m2
07:26 -8.2 °C -11 °C 1011.4 hPa Calm     80% 0 mm 9 W/m2
07:32 -8.2 °C -11.1 °C 1011.4 hPa Calm     80% 0 mm 14 W/m2
07:38 -8.2 °C -11 °C 1011.4 hPa Calm     80% 0 mm 18 W/m2
07:44 -8.1 °C -10.9 °C 1011.4 hPa Calm     80% 0 mm 21 W/m2
07:50 -8.1 °C -10.9 °C 1011.4 hPa Calm     80% 0 mm 25 W/m2
07:56 -8.1 °C -10.9 °C 1011.4 hPa Calm     80% 0 mm 28 W/m2
08:02 -8.2 °C -11 °C 1011.1 hPa Calm     80% 0 mm 39 W/m2
08:08 -8.1 °C -10.9 °C 1011.1 hPa Calm     80% 0 mm 51 W/m2
08:14 -8 °C -10.8 °C 1010.7 hPa Calm     80% 0 mm 62 W/m2
08:20 -7.8 °C -10.7 °C 1010.7 hPa Calm     80% 0 mm 81 W/m2
08:26 -7.6 °C -10.6 °C 1010.7 hPa Calm     79% 0 mm 98 W/m2
08:32 -7.1 °C -10.4 °C 1010.7 hPa Calm     77% 0 mm 105 W/m2
08:38 -6.3 °C -10.2 °C 1010.7 hPa Calm     74% 0 mm 104 W/m2
08:46 -3.9 °C -9.7 °C 1010.7 hPa SW 1.6 km/h 1.6 km/h 64% 0 mm 105 W/m2
08:52 -2.2 °C -10.1 °C 1010.4 hPa SSW 4.8 km/h 4.8 km/h 55% 0 mm 105 W/m2
08:58 -1.4 °C -10.2 °C 1010.4 hPa SW 4.8 km/h 4.8 km/h 51% 0 mm 111 W/m2
09:04 -0.9 °C -10.6 °C 1010 hPa WSW 4.8 km/h 12.9 km/h 48% 0 mm 139 W/m2
09:10 -0.6 °C -10.8 °C 1010 hPa SSW 4.8 km/h 9.7 km/h 46% 0 mm 155 W/m2
09:16 -0.3 °C -10.6 °C 1010 hPa SSW 6.4 km/h 9.7 km/h 46% 0 mm 211 W/m2
09:22 -0.1 °C -10.6 °C 1010 hPa SW 6.4 km/h 12.9 km/h 45% 0 mm 216 W/m2
09:28 0.2 °C -10.4 °C 1010 hPa SW 6.4 km/h 12.9 km/h 45% 0 mm 207 W/m2
09:34 0.3 °C -10.8 °C 1009.7 hPa SW 6.4 km/h 9.7 km/h 43% 0 mm 181 W/m2
09:40 0.3 °C -10.6 °C 1009.7 hPa SSW 8 km/h 8 km/h 44% 0 mm 127 W/m2
09:46 0.3 °C -11.1 °C 1010 hPa WSW 6.4 km/h 11.3 km/h 42% 0 mm 135 W/m2
09:52 0.4 °C -10.7 °C 1010 hPa SSW 6.4 km/h 6.4 km/h 43% 0 mm 199 W/m2
09:58 0.5 °C -10.7 °C 1010 hPa SSW 6.4 km/h 11.3 km/h 43% 0 mm 123 W/m2
10:04 0.5 °C -10.9 °C 1010 hPa WSW 6.4 km/h 9.7 km/h 42% 0 mm 95 W/m2
10:10 0.4 °C -10.7 °C 1010 hPa SSW 6.4 km/h 9.7 km/h 43% 0 mm 77 W/m2
10:16 0.2 °C -10.1 °C 1009.7 hPa SSW 8 km/h 12.9 km/h 46% 0 mm 84 W/m2
10:22 0.3 °C -10.3 °C 1009.7 hPa WSW 6.4 km/h 9.7 km/h 45% 0 mm 156 W/m2
10:28 0.6 °C -9.8 °C 1010 hPa SSW 6.4 km/h 12.9 km/h 46% 0 mm 200 W/m2
10:34 0.3 °C -7.7 °C 1010 hPa SSW 9.7 km/h 17.7 km/h 55% 0 mm 162 W/m2
10:40 -0.1 °C -7.3 °C 1010 hPa SW 12.9 km/h 12.9 km/h 58% 0 mm 134 W/m2
10:46 -0.2 °C -6.8 °C 1010 hPa WSW 9.7 km/h 19.3 km/h 61% 0 mm 137 W/m2
10:52 -0.7 °C -6.2 °C 1010 hPa WSW 11.3 km/h 12.9 km/h 66% 0 mm 179 W/m2
10:58 -0.8 °C -6 °C 1010 hPa SW 9.7 km/h 12.9 km/h 68% 0 mm 229 W/m2
11:04 -0.8 °C -5.6 °C 1010 hPa SW 8 km/h 9.7 km/h 70% 0 mm 206 W/m2
11:10 -1.1 °C -5.1 °C 1010 hPa SSW 9.7 km/h 9.7 km/h 74% 0 mm 193 W/m2
11:16 -1.1 °C -4.8 °C 1010 hPa West 9.7 km/h 11.3 km/h 76% 0 mm 195 W/m2
11:22 -1.1 °C -4.8 °C 1010 hPa SW 6.4 km/h 6.4 km/h 76% 0 mm 199 W/m2
11:28 -1.1 °C -4.8 °C 1009.7 hPa West 4.8 km/h 8 km/h 76% 0 mm 200 W/m2
11:34 -0.9 °C -4.8 °C 1009.7 hPa SW 4.8 km/h 8 km/h 75% 0 mm 279 W/m2
11:40 -0.7 °C -4.6 °C 1009.7 hPa WSW 4.8 km/h 9.7 km/h 75% 0 mm 255 W/m2
11:46 -0.7 °C -4.6 °C 1009.7 hPa SW 4.8 km/h 9.7 km/h 75% 0 mm 290 W/m2
11:52 -0.5 °C -4.4 °C 1009.4 hPa SSW 4.8 km/h 8 km/h 75% 0 mm 260 W/m2
11:58 -0.4 °C -4.3 °C 1009.4 hPa West 4.8 km/h 8 km/h 75% 0 mm 202 W/m2
12:04 -0.6 °C -4.6 °C 1009 hPa WSW 6.4 km/h 6.4 km/h 74% 0 mm 127 W/m2
12:10 -0.7 °C -4.6 °C 1009 hPa WSW 6.4 km/h 8 km/h 75% 0 mm 93 W/m2
12:16 -0.9 °C -4.8 °C 1009 hPa WNW 8 km/h 9.7 km/h 75% 0 mm 156 W/m2
12:22 -0.8 °C -4.7 °C 1009 hPa SSW 8 km/h 11.3 km/h 75% 0 mm 197 W/m2
12:28 -0.7 °C -4.4 °C 1008.7 hPa SW 6.4 km/h 11.3 km/h 76% 0 mm 209 W/m2
12:34 -0.7 °C -4.6 °C 1008.7 hPa SW 6.4 km/h 14.5 km/h 75% 0 mm 200 W/m2
12:40 -0.6 °C -4.5 °C 1008.4 hPa SW 6.4 km/h 6.4 km/h 75% 0 mm 202 W/m2
12:46 -0.6 °C -4.4 °C 1008.4 hPa SW 6.4 km/h 8 km/h 75% 0 mm 225 W/m2
12:52 -0.4 °C -4.4 °C 1008.4 hPa SSW 4.8 km/h 6.4 km/h 74% 0 mm 193 W/m2
13:04 -0.3 °C -4.4 °C 1008 hPa SSW 8 km/h 8 km/h 74% 0 mm 213 W/m2
13:10 -0.2 °C -4.5 °C 1008 hPa South 6.4 km/h 8 km/h 73% 0 mm 172 W/m2
13:16 -0.2 °C -4.4 °C 1008 hPa SSW 4.8 km/h 8 km/h 73% 0 mm 144 W/m2
13:22 -0.2 °C -4.6 °C 1008 hPa SW 4.8 km/h 8 km/h 72% 0 mm 109 W/m2
13:28 -0.2 °C -4.6 °C 1008 hPa SSW 6.4 km/h 8 km/h 72% 0 mm 74 W/m2
13:34 -0.2 °C -4.6 °C 1008 hPa SW 4.8 km/h 9.7 km/h 72% 0 mm 67 W/m2
13:40 -0.1 °C -4.6 °C 1007.7 hPa SW 3.2 km/h 3.2 km/h 72% 0 mm 56 W/m2
13:46 0 °C -4.6 °C 1007.7 hPa WSW 3.2 km/h 4.8 km/h 71% 0 mm 49 W/m2
13:52 0.1 °C -4.9 °C 1007.3 hPa SW 3.2 km/h 4.8 km/h 69% 0 mm 49 W/m2
13:58 0.3 °C -5.1 °C 1007.3 hPa West 4.8 km/h 9.7 km/h 67% 0 mm 49 W/m2
14:04 0.5 °C -4.9 °C 1007.3 hPa West 8 km/h 12.9 km/h 67% 0 mm 44 W/m2
14:10 0.6 °C -4.9 °C 1007.3 hPa West 9.7 km/h 9.7 km/h 67% 0 mm 49 W/m2
14:16 0.5 °C -4.7 °C 1007.3 hPa SW 8 km/h 9.7 km/h 68% 0 mm 51 W/m2
14:22 0.6 °C -4.7 °C 1007.3 hPa SW 9.7 km/h 16.1 km/h 68% 0 mm 53 W/m2
14:28 0.5 °C -4.7 °C 1007.3 hPa NW 9.7 km/h 16.1 km/h 68% 0 mm 51 W/m2
14:34 0.6 °C -4.7 °C 1007.3 hPa WSW 9.7 km/h 19.3 km/h 68% 0 mm 56 W/m2
14:40 0.6 °C -4.7 °C 1007.3 hPa SW 9.7 km/h 22.5 km/h 68% 0 mm 63 W/m2
14:46 0.6 °C -4.7 °C 1007.3 hPa West 9.7 km/h 22.5 km/h 68% 0 mm 67 W/m2
14:52 0.6 °C -4.5 °C 1007.3 hPa West 9.7 km/h 11.3 km/h 69% 0 mm 69 W/m2
14:58 0.6 °C -4.5 °C 1007.3 hPa West 9.7 km/h 19.3 km/h 69% 0 mm 60 W/m2
15:04 0.6 °C -4.5 °C 1007.3 hPa WSW 9.7 km/h 9.7 km/h 69% 0 mm 62 W/m2
15:10 0.6 °C -4.5 °C 1007.3 hPa WSW 8 km/h 8 km/h 69% 0 mm 60 W/m2
15:16 0.6 °C -4.2 °C 1007 hPa West 6.4 km/h 8 km/h 70% 0 mm 58 W/m2
15:22 0.6 °C -4.4 °C 1007.3 hPa SW 8 km/h 14.5 km/h 69% 0 mm 58 W/m2
15:28 0.6 °C -4.2 °C 1007.3 hPa West 8 km/h 14.5 km/h 70% 0 mm 44 W/m2
15:34 0.6 °C -4.3 °C 1007.3 hPa West 8 km/h 8 km/h 70% 0 mm 33 W/m2
15:40 0.6 °C -4.1 °C 1007.3 hPa WSW 8 km/h 8 km/h 71% 0 mm 28 W/m2
15:46 0.5 °C -4.2 °C 1007.3 hPa West 8 km/h 17.7 km/h 71% 0 mm 28 W/m2
15:52 0.5 °C -3.9 °C 1007.3 hPa West 8 km/h 11.3 km/h 72% 0 mm 19 W/m2
15:58 0.4 °C -4 °C 1007.3 hPa West 6.4 km/h 16.1 km/h 72% 0 mm 19 W/m2
16:04 0.4 °C -4 °C 1007.7 hPa West 6.4 km/h 9.7 km/h 72% 0 mm 16 W/m2
16:10 0.4 °C -4 °C 1007.7 hPa WSW 8 km/h 8 km/h 72% 0 mm 14 W/m2
16:16 0.6 °C -3.9 °C 1008 hPa SW 9.7 km/h 16.1 km/h 72% 0 mm 12 W/m2
16:22 0.5 °C -3.8 °C 1008 hPa West 8 km/h 9.7 km/h 73% 0 mm 12 W/m2
16:28 0.5 °C -3.8 °C 1008 hPa SSW 6.4 km/h 16.1 km/h 73% 0 mm 9 W/m2
16:34 0.5 °C -3.8 °C 1008 hPa WNW 8 km/h 9.7 km/h 73% 0 mm 9 W/m2
16:40 0.4 °C -3.7 °C 1008 hPa WSW 6.4 km/h 6.4 km/h 74% 0 mm 7 W/m2
16:46 0.4 °C -3.7 °C 1008 hPa WSW 8 km/h 9.7 km/h 74% 0 mm 5 W/m2
16:52 0.4 °C -3.7 °C 1008.4 hPa WSW 6.4 km/h 8 km/h 74% 0 mm 0 W/m2
16:58 0.4 °C -3.7 °C 1008.4 hPa SW 4.8 km/h 8 km/h 74% 0 mm 0 W/m2
17:04 0.4 °C -3.7 °C 1008.4 hPa West 6.4 km/h 8 km/h 74% 0 mm 0 W/m2
17:10 0.4 °C -3.7 °C 1008.4 hPa West 4.8 km/h 6.4 km/h 74% 0 mm 0 W/m2
17:16 0.3 °C -3.6 °C 1008.7 hPa WSW 4.8 km/h 8 km/h 75% 0 mm 0 W/m2
17:22 0.3 °C -3.6 °C 1009 hPa WNW 4.8 km/h 4.8 km/h 75% 0 mm 0 W/m2
17:28 0.3 °C -3.6 °C 1009 hPa West 6.4 km/h 8 km/h 75% 0 mm 0 W/m2
17:34 0.3 °C -3.4 °C 1009 hPa WSW 6.4 km/h 6.4 km/h 76% 0 mm 0 W/m2
17:40 0.2 °C -3.5 °C 1009 hPa West 4.8 km/h 4.8 km/h 76% 0 mm 0 W/m2
17:46 0.2 °C -3.4 °C 1009 hPa SW 4.8 km/h 12.9 km/h 77% 0 mm 0 W/m2
17:52 0.2 °C -3.4 °C 1009 hPa West 4.8 km/h 6.4 km/h 77% 0 mm 0 W/m2
17:58 0.1 °C -3.4 °C 1009.4 hPa WSW 4.8 km/h 8 km/h 77% 0 mm 0 W/m2
18:04 0.1 °C -3.3 °C 1009.4 hPa West 4.8 km/h 6.4 km/h 78% 0 mm 0 W/m2
18:10 0.1 °C -3.3 °C 1009.4 hPa West 3.2 km/h 3.2 km/h 78% 0 mm 0 W/m2
18:16 0.1 °C -3.3 °C 1009.4 hPa WSW 4.8 km/h 4.8 km/h 78% 0 mm 0 W/m2
18:22 0.1 °C -3.3 °C 1009.7 hPa WNW 4.8 km/h 4.8 km/h 78% 0 mm 0 W/m2
18:28 0.1 °C -3.3 °C 1009.7 hPa WSW 4.8 km/h 8 km/h 78% 0 mm 0 W/m2
18:34 0.1 °C -3.3 °C 1010 hPa WSW 3.2 km/h 6.4 km/h 78% 0 mm 0 W/m2
18:40 0.1 °C -3.3 °C 1009.7 hPa WSW 3.2 km/h 4.8 km/h 78% 0 mm 0 W/m2
18:46 0.2 °C -3.2 °C 1010 hPa SSW 4.8 km/h 8 km/h 78% 0 mm 0 W/m2
18:52 0.3 °C -3.3 °C 1010 hPa West 4.8 km/h 6.4 km/h 77% 0 mm 0 W/m2
18:58 0.3 °C -3.2 °C 1010 hPa South 4.8 km/h 14.5 km/h 77% 0 mm 0 W/m2
19:04 0.4 °C -3.2 °C 1010 hPa WNW 6.4 km/h 9.7 km/h 77% 0 mm 0 W/m2
19:10 0.4 °C -3.2 °C 1010 hPa West 6.4 km/h 6.4 km/h 77% 0 mm 0 W/m2
19:16 0.4 °C -3.1 °C 1010 hPa WSW 6.4 km/h 8 km/h 77% 0 mm 0 W/m2
19:22 0.5 °C -3.1 °C 1010 hPa WSW 6.4 km/h 6.4 km/h 77% 0 mm 0 W/m2
19:28 0.6 °C -3.2 °C 1010 hPa WSW 6.4 km/h 8 km/h 76% 0 mm 0 W/m2
19:34 0.6 °C -3.2 °C 1010 hPa West 6.4 km/h 8 km/h 76% 0 mm 0 W/m2
19:40 0.6 °C -3.1 °C 1010.4 hPa WSW 8 km/h 9.7 km/h 76% 0 mm 0 W/m2
19:46 0.7 °C -3.3 °C 1010.4 hPa West 8 km/h 16.1 km/h 75% 0 mm 0 W/m2
19:52 0.7 °C -3.4 °C 1010.4 hPa West 8 km/h 14.5 km/h 74% 0 mm 0 W/m2
19:58 0.7 °C -3.2 °C 1010.4 hPa SW 6.4 km/h 14.5 km/h 75% 0 mm 0 W/m2
20:04 0.7 °C -3.4 °C 1010.4 hPa West 6.4 km/h 14.5 km/h 74% 0 mm 0 W/m2
20:10 0.7 °C -3.4 °C 1010.4 hPa West 6.4 km/h 6.4 km/h 74% 0 mm 0 W/m2
20:16 0.7 °C -3.4 °C 1010.7 hPa NNW 6.4 km/h 14.5 km/h 74% 0 mm 0 W/m2
20:22 0.8 °C -3.3 °C 1010.4 hPa WSW 8 km/h 11.3 km/h 74% 0 mm 0 W/m2
20:28 0.7 °C -3.4 °C 1010.4 hPa WSW 6.4 km/h 11.3 km/h 74% 0 mm 0 W/m2
20:34 0.7 °C -3.4 °C 1010.7 hPa West 4.8 km/h 8 km/h 74% 0 mm 0 W/m2
20:40 0.7 °C -3.6 °C 1011.1 hPa WSW 4.8 km/h 12.9 km/h 73% 0 mm 0 W/m2
20:46 0.7 °C -3.4 °C 1011.1 hPa West 6.4 km/h 12.9 km/h 74% 0 mm 0 W/m2
20:52 0.6 °C -3.2 °C 1011.4 hPa NW 6.4 km/h 14.5 km/h 76% 0 mm 0 W/m2
20:58 -0.2 °C -2.7 °C 1011.7 hPa WNW 9.7 km/h 14.5 km/h 83% 0 mm 0 W/m2
21:04 -0.7 °C -2.6 °C 1011.7 hPa WNW 8 km/h 9.7 km/h 87% 0 mm 0 W/m2
21:10 -0.8 °C -2.4 °C 1011.7 hPa West 8 km/h 8 km/h 89% 0 mm 0 W/m2
21:16 -0.9 °C -2.5 °C 1012.1 hPa WNW 8 km/h 16.1 km/h 89% 0 mm 0 W/m2
21:22 -0.9 °C -2.3 °C 1012.1 hPa NW 8 km/h 11.3 km/h 90% 0 mm 0 W/m2
21:28 -0.9 °C -2.3 °C 1012.4 hPa NW 6.4 km/h 11.3 km/h 90% 0 mm 0 W/m2
21:34 -0.9 °C -2.2 °C 1012.4 hPa WNW 6.4 km/h 9.7 km/h 91% 0 mm 0 W/m2
21:40 -0.9 °C -2.2 °C 1012.4 hPa WNW 6.4 km/h 8 km/h 91% 0 mm 0 W/m2
21:46 -0.9 °C -2.2 °C 1012.8 hPa West 6.4 km/h 8 km/h 91% 0 mm 0 W/m2
21:52 -0.8 °C -2.1 °C 1012.8 hPa WNW 4.8 km/h 4.8 km/h 91% 0 mm 0 W/m2
21:58 -0.8 °C -2.3 °C 1012.8 hPa WNW 4.8 km/h 4.8 km/h 90% 0 mm 0 W/m2
22:04 -0.8 °C -2.3 °C 1012.8 hPa WNW 4.8 km/h 6.4 km/h 90% 0 mm 0 W/m2
22:10 -0.8 °C -2.4 °C 1012.8 hPa NW 4.8 km/h 4.8 km/h 89% 0 mm 0 W/m2
22:16 -0.9 °C -2.8 °C 1012.8 hPa NW 3.2 km/h 4.8 km/h 87% 0 mm 0 W/m2
22:22 -0.9 °C -3.2 °C 1013.1 hPa NW 3.2 km/h 4.8 km/h 85% 0 mm 0 W/m2
22:28 -0.9 °C -3.6 °C 1013.1 hPa WNW 4.8 km/h 8 km/h 82% 0 mm 0 W/m2
22:34 -0.8 °C -4 °C 1013.1 hPa WNW 6.4 km/h 8 km/h 79% 0 mm 0 W/m2
22:40 -0.7 °C -4.3 °C 1013.1 hPa West 8 km/h 8 km/h 77% 0 mm 0 W/m2
22:46 -0.7 °C -4.6 °C 1013.1 hPa WNW 8 km/h 9.7 km/h 75% 0 mm 0 W/m2
22:52 -0.7 °C -4.8 °C 1013.1 hPa NW 8 km/h 12.9 km/h 74% 0 mm 0 W/m2
22:58 -0.7 °C -4.9 °C 1013.4 hPa NW 8 km/h 12.9 km/h 73% 0 mm 0 W/m2
23:04 -0.8 °C -4.8 °C 1013.4 hPa WNW 6.4 km/h 8 km/h 74% 0 mm 0 W/m2
23:10 -0.8 °C -4.9 °C 1013.8 hPa NW 6.4 km/h 6.4 km/h 74% 0 mm 0 W/m2
23:16 -0.9 °C -5.1 °C 1013.8 hPa WNW 6.4 km/h 8 km/h 73% 0 mm 0 W/m2
23:22 -0.9 °C -5.2 °C 1013.8 hPa WNW 8 km/h 8 km/h 73% 0 mm 0 W/m2
23:28 -0.9 °C -5.6 °C 1013.8 hPa NW 8 km/h 14.5 km/h 71% 0 mm 0 W/m2
23:34 -1 °C -5.8 °C 1013.8 hPa NW 9.7 km/h 9.7 km/h 70% 0 mm 0 W/m2
23:40 -1 °C -6 °C 1013.8 hPa West 8 km/h 14.5 km/h 69% 0 mm 0 W/m2
23:46 -1.1 °C -6.2 °C 1013.8 hPa WNW 6.4 km/h 14.5 km/h 68% 0 mm 0 W/m2
23:52 -1.1 °C -6.4 °C 1014.1 hPa WNW 6.4 km/h 6.4 km/h 67% 0 mm 0 W/m2
23:58 -1.2 °C -6.9 °C 1014.1 hPa WNW 6.4 km/h 9.7 km/h 65% 0 mm 0 W/m2
Country Meadow, Clay, NY, USA
Compliments of Weather Underground - 2 mb